Southport, United Kingdom
Current Conditions -  °F | °C
As of 8:50 PM on Wednesday 17 Dec 2014 (Local Time) from EGNH Reporting Station
Broken Clouds Broken Clouds  
Wind Chill: 50°   Ceiling: 2200
Heat Index: 50°   Visibility: 6mi
Dew Point: 48°   Wind: 17mph
Humidity: 94%   Direction: 230°SW
Pressure: 29.65"   Gusts: NA
Location:  53.65°N, 3.01°W
Report Text: EGNH 172050Z 23015KT 9999 SCT014 BKN022 10/09 Q1004
Loading
Personal Weather Stations






























Interactive Weather Map New forecast layout! Learn more

10-Day Weather Forecast

Advertisements
Track Severe Weather on mobile